createdAt,value
2022-09-05T04:00:26.992Z,77.95
2022-09-05T04:06:44.198Z,78.89
2022-09-05T04:07:20.012Z,78.96
2022-09-05T04:08:10.906Z,79.39
2022-09-05T04:08:15.118Z,79.69
2022-09-05T04:08:15.901Z,79.90
2022-09-05T04:08:17.304Z,79.69
2022-09-05T04:08:20.870Z,79.49
2022-09-05T04:08:38.829Z,80.10
2022-09-05T04:09:49.697Z,80.40
2022-09-05T04:10:27.977Z,80.60
2022-09-05T04:11:26.836Z,81.10
2022-09-05T04:12:26.825Z,81.01
2022-09-05T04:13:31.853Z,81.01
2022-09-05T04:14:26.800Z,81.24
2022-09-05T04:15:26.793Z,81.15
2022-09-05T04:16:26.875Z,80.94
2022-09-05T04:17:26.768Z,81.81
2022-09-05T04:18:32.855Z,81.51
2022-09-05T04:19:27.745Z,81.10
2022-09-05T04:20:26.731Z,82.65
2022-09-05T04:21:26.739Z,82.65
2022-09-05T04:22:26.712Z,82.25
2022-09-05T04:23:26.721Z,82.65
2022-09-05T04:24:31.711Z,82.15
2022-09-05T04:25:26.684Z,82.86
2022-09-05T04:26:26.669Z,82.76
2022-09-05T04:27:27.864Z,83.46
2022-09-05T04:28:26.645Z,82.76
2022-09-05T04:29:26.648Z,82.96
2022-09-05T04:30:37.906Z,82.96
2022-09-05T04:31:27.632Z,83.56
2022-09-05T04:32:26.638Z,83.36
2022-09-05T04:33:36.473Z,83.52
2022-09-05T04:34:27.593Z,83.22
2022-09-05T04:35:31.609Z,84.03
2022-09-05T04:36:26.567Z,83.52
2022-09-05T04:37:26.546Z,83.62
2022-09-05T04:38:27.533Z,83.02
2022-09-05T04:39:26.576Z,83.12
2022-09-05T04:40:30.909Z,83.02
2022-09-05T04:41:39.291Z,83.12
2022-09-05T04:42:27.492Z,83.22
2022-09-05T04:43:26.480Z,82.71
2022-09-05T04:44:26.489Z,82.71
2022-09-05T04:45:26.462Z,82.07
2022-09-05T04:46:31.510Z,82.51
2022-09-05T04:47:26.437Z,82.28
2022-09-05T04:48:26.487Z,81.77
2022-09-05T04:49:26.424Z,81.47
2022-09-05T04:50:26.400Z,81.47
2022-09-05T04:51:27.394Z,81.61
2022-09-05T04:52:31.654Z,80.90
2022-09-05T04:53:27.370Z,80.97
2022-09-05T04:54:29.945Z,81.07
2022-09-05T04:55:26.346Z,81.07
2022-09-05T04:56:26.337Z,80.77
2022-09-05T04:57:31.349Z,80.87
2022-09-05T04:58:27.494Z,80.57
2022-09-05T05:02:51.975Z,80.57
2022-09-05T05:04:23.730Z,80.57
2022-09-05T05:06:01.123Z,80.02
2022-09-05T05:06:11.396Z,80.26
2022-09-05T05:06:13.325Z,80.26
2022-09-05T05:06:18.131Z,79.66
2022-09-05T05:06:19.739Z,80.26
2022-09-05T05:06:43.796Z,79.16
2022-09-05T05:07:27.389Z,79.66
2022-09-05T05:08:38.282Z,79.56
2022-09-05T05:09:27.191Z,79.25
2022-09-05T05:14:45.830Z,79.25
2022-09-05T05:17:57.275Z,79.16
2022-09-05T05:17:57.744Z,79.25
2022-09-05T05:18:01.653Z,79.96
2022-09-05T05:18:07.037Z,79.96
2022-09-05T05:18:12.955Z,80.20
2022-09-05T05:18:15.970Z,80.16
2022-09-05T05:18:16.388Z,80.26
2022-09-05T05:18:38.632Z,80.06
2022-09-05T05:19:32.186Z,79.16
2022-09-05T05:20:40.074Z,79.25
2022-09-05T05:21:27.060Z,79.66
2022-09-05T05:22:26.050Z,79.52
2022-09-05T05:23:26.040Z,79.66
2022-09-05T05:24:26.038Z,79.66
2022-09-05T05:25:26.030Z,79.66
2022-09-05T05:26:26.010Z,79.56
2022-09-05T05:27:26.026Z,79.66
2022-09-05T05:28:26.226Z,79.32
2022-09-05T05:29:26.057Z,79.62
2022-09-05T05:30:30.983Z,79.02
2022-09-05T05:31:25.965Z,78.75
2022-09-05T05:32:33.282Z,78.31
2022-09-05T05:33:26.934Z,78.21
2022-09-05T05:34:25.927Z,78.41
2022-09-05T05:35:25.904Z,78.51
2022-09-05T05:36:25.895Z,78.51
2022-09-05T05:37:25.883Z,78.55
2022-09-05T05:38:26.071Z,78.51
2022-09-05T05:39:25.941Z,78.51
2022-09-05T05:40:25.851Z,77.91
2022-09-05T05:41:30.860Z,78.81
2022-09-05T05:42:25.829Z,78.11
2022-09-05T05:43:25.817Z,78.38
2022-09-05T05:44:25.821Z,77.57
2022-09-05T05:45:25.796Z,77.13
2022-09-05T05:46:25.875Z,77.53
2022-09-05T05:47:31.303Z,76.97
2022-09-05T05:48:26.762Z,77.03
2022-09-05T05:49:25.767Z,77.23
2022-09-05T05:50:25.741Z,77.77
2022-09-05T05:51:39.688Z,77.03
2022-09-05T05:52:31.739Z,76.73
2022-09-05T05:53:42.403Z,76.93
2022-09-05T05:54:26.707Z,76.93
2022-09-05T05:55:51.374Z,76.73
2022-09-05T05:56:26.678Z,76.83
2022-09-05T05:57:25.665Z,76.93
2022-09-05T05:58:25.792Z,77.50
2022-09-05T05:59:26.678Z,77.63
2022-09-05T06:00:28.081Z,77.90
2022-09-05T06:01:31.596Z,77.73
2022-09-05T06:02:26.725Z,77.63
2022-09-05T06:03:30.750Z,77.87
2022-09-05T06:04:25.598Z,78.03
2022-09-05T06:05:25.578Z,78.27
2022-09-05T06:06:25.570Z,77.57
2022-09-05T06:07:25.554Z,78.07
2022-09-05T06:11:43.675Z,78.38
2022-09-05T06:13:03.607Z,78.38
2022-09-05T06:14:55.646Z,77.03
2022-09-05T06:14:56.459Z,78.17
2022-09-05T06:14:59.826Z,77.33
2022-09-05T06:15:00.162Z,77.13
2022-09-05T06:15:03.787Z,78.54
2022-09-05T06:15:27.397Z,77.03
2022-09-05T06:16:25.512Z,77.03
2022-09-05T06:17:28.096Z,76.32
2022-09-05T06:18:25.432Z,76.53
2022-09-05T06:19:25.425Z,76.79
2022-09-05T06:22:10.592Z,76.39
2022-09-05T06:22:10.955Z,76.19
2022-09-05T06:22:26.391Z,75.99
2022-09-05T06:23:39.918Z,75.99
2022-09-05T06:24:26.367Z,75.89
2022-09-05T06:25:30.384Z,75.75
2022-09-05T06:26:25.346Z,75.85
2022-09-05T06:27:25.331Z,74.65
2022-09-05T06:28:25.319Z,74.74
2022-09-05T06:29:25.312Z,74.55
2022-09-05T06:30:26.368Z,74.85
2022-09-05T06:31:31.085Z,74.31
2022-09-05T06:32:26.273Z,74.01
2022-09-05T06:33:25.352Z,73.81
2022-09-05T06:34:32.654Z,73.91
2022-09-05T06:35:26.252Z,73.50
2022-09-05T06:36:30.274Z,73.30
2022-09-05T06:37:25.227Z,73.47
2022-09-05T06:38:25.236Z,73.47
2022-09-05T06:39:25.262Z,73.07
2022-09-05T06:40:27.186Z,72.06
2022-09-05T06:41:26.174Z,71.63
2022-09-05T06:42:33.322Z,72.13
2022-09-05T06:43:26.466Z,72.13
2022-09-05T06:44:26.225Z,71.33
2022-09-05T06:45:28.365Z,71.09
2022-09-05T06:46:55.261Z,71.20
2022-09-05T06:47:34.060Z,71.13
2022-09-05T06:48:38.269Z,71.39
2022-09-05T06:49:30.515Z,71.30
2022-09-05T06:50:27.726Z,71.09
2022-09-05T06:51:25.059Z,71.06
2022-09-05T06:52:29.473Z,71.09
2022-09-05T06:53:26.038Z,71.00
2022-09-05T06:54:25.029Z,71.06
2022-09-05T06:55:25.040Z,69.62
2022-09-05T06:56:25.695Z,69.82
2022-09-05T06:57:25.009Z,69.73
2022-09-05T06:58:30.006Z,69.29
2022-09-05T06:59:24.974Z,69.59
2022-09-05T07:00:25.047Z,69.29
2022-09-05T07:01:25.088Z,69.53
2022-09-05T07:02:58.497Z,70.96
2022-09-05T07:03:26.539Z,71.16
2022-09-05T07:05:23.328Z,72.06
2022-09-05T07:05:40.105Z,71.50
2022-09-05T07:06:48.068Z,71.20
2022-09-05T07:07:27.560Z,71.30
2022-09-05T07:08:33.396Z,71.46
2022-09-05T07:09:30.886Z,70.76
2022-09-05T07:10:39.782Z,70.66
2022-09-05T07:11:25.840Z,70.76
2022-09-05T07:12:24.827Z,69.53
2022-09-05T07:13:26.041Z,69.39
2022-09-05T07:14:24.823Z,69.09
2022-09-05T07:15:24.805Z,69.09
2022-09-05T07:16:31.496Z,68.99
2022-09-05T07:17:25.771Z,69.29
2022-09-05T07:18:24.760Z,69.09
2022-09-05T07:19:24.750Z,68.79
2022-09-05T07:20:29.780Z,68.66
2022-09-05T07:21:26.387Z,68.69
2022-09-05T07:22:47.039Z,69.06
2022-09-05T07:24:06.312Z,68.66
2022-09-05T07:24:53.208Z,68.46
2022-09-05T07:25:26.452Z,68.86
2022-09-05T07:26:35.064Z,68.16
2022-09-05T07:27:25.669Z,68.66
2022-09-05T07:28:29.186Z,67.13
2022-09-05T07:29:27.989Z,67.40
2022-09-05T07:30:24.628Z,66.59
2022-09-05T07:31:37.476Z,67.43
2022-09-05T07:32:25.690Z,67.43
2022-09-05T07:33:24.699Z,68.13
2022-09-05T07:34:24.586Z,68.32
2022-09-05T07:35:24.570Z,68.32
2022-09-05T07:36:24.585Z,68.02
2022-09-05T07:37:24.549Z,67.63
2022-09-05T07:38:26.794Z,68.23
2022-09-05T07:39:29.233Z,68.66
2022-09-05T07:40:27.345Z,68.82
2022-09-05T07:41:24.517Z,68.52
2022-09-05T07:42:29.516Z,68.52
2022-09-05T07:43:24.574Z,68.13
2022-09-05T07:44:24.471Z,67.32
2022-09-05T07:45:24.518Z,67.72
2022-09-05T07:46:24.461Z,67.19
2022-09-05T07:47:24.437Z,67.22
2022-09-05T07:48:34.462Z,67.63
2022-09-05T07:49:25.416Z,67.13
2022-09-05T07:51:31.892Z,67.79
2022-09-05T07:55:43.497Z,67.40
2022-09-05T07:56:54.104Z,67.09
2022-09-05T07:56:59.809Z,66.66
2022-09-05T07:57:00.911Z,67.06
2022-09-05T07:57:02.494Z,66.76
2022-09-05T07:57:10.066Z,66.46
2022-09-05T07:57:31.197Z,66.16
2022-09-05T07:58:25.323Z,65.93
2022-09-05T07:59:24.318Z,65.93
2022-09-05T08:00:27.041Z,65.53
2022-09-05T08:01:25.353Z,65.50
2022-09-05T08:02:24.272Z,63.90
2022-09-05T08:03:24.393Z,64.70
2022-09-05T08:04:29.291Z,64.50
2022-09-05T08:05:34.326Z,64.00
2022-09-05T08:07:01.253Z,63.40
2022-09-05T08:07:48.158Z,64.10
2022-09-05T08:08:25.559Z,63.87
2022-09-05T08:10:09.143Z,63.57
2022-09-05T08:10:31.175Z,63.50
2022-09-05T08:11:26.406Z,64.20
2022-09-05T08:12:28.048Z,64.90
2022-09-05T08:13:27.435Z,64.60
2022-09-05T08:14:45.280Z,65.60
2022-09-05T08:16:02.744Z,65.20
2022-09-05T08:16:25.189Z,64.40
2022-09-05T08:17:29.951Z,64.80
2022-09-05T08:18:25.099Z,64.30
2022-09-05T08:19:24.087Z,64.50
2022-09-05T08:20:24.076Z,64.57
2022-09-05T08:21:27.103Z,64.57
2022-09-05T08:22:24.053Z,64.47
2022-09-05T08:23:24.167Z,63.91
2022-09-05T08:24:24.031Z,63.38
2022-09-05T08:25:24.031Z,62.38
2022-09-05T08:26:29.031Z,62.35
2022-09-05T08:27:23.995Z,62.38
2022-09-05T08:28:24.079Z,62.59
2022-09-05T08:29:23.976Z,63.11
2022-09-05T08:30:26.183Z,62.71
2022-09-05T08:31:24.027Z,61.99
2022-09-05T08:32:23.944Z,62.59
2022-09-05T08:33:23.930Z,62.71
2022-09-05T08:34:44.301Z,62.21
2022-09-05T08:35:24.920Z,62.21
2022-09-05T08:36:23.898Z,63.01
2022-09-05T08:37:28.910Z,63.51
2022-09-05T08:38:24.048Z,63.64
2022-09-05T08:39:23.939Z,63.51
2022-09-05T08:40:23.893Z,63.61
2022-09-05T08:41:33.334Z,62.91
2022-09-05T08:42:24.832Z,62.71
2022-09-05T08:43:44.396Z,61.99
2022-09-05T08:46:39.202Z,62.29
2022-09-05T08:46:39.916Z,62.29
2022-09-05T08:46:47.305Z,61.58
2022-09-05T08:47:24.869Z,62.08
2022-09-05T08:48:28.788Z,62.29
2022-09-05T08:49:37.046Z,62.29
2022-09-05T08:50:26.750Z,61.69
2022-09-05T08:51:23.742Z,61.46
2022-09-05T08:52:23.722Z,61.36
2022-09-05T08:53:45.215Z,60.96
2022-09-05T08:54:24.702Z,61.43
2022-09-05T08:55:23.689Z,61.13
2022-09-05T08:56:23.689Z,60.06
2022-09-05T08:57:23.671Z,59.86
2022-09-05T08:58:23.657Z,59.74
2022-09-05T08:59:32.869Z,59.64
2022-09-05T09:00:24.881Z,59.94
2022-09-05T09:01:23.674Z,59.83
2022-09-05T09:02:48.148Z,59.53
2022-09-05T09:03:26.030Z,58.54
2022-09-05T09:04:41.682Z,57.84
2022-09-05T09:05:24.577Z,58.14
2022-09-05T09:06:26.828Z,57.45
2022-09-05T09:07:36.776Z,57.52
2022-09-05T09:08:24.545Z,58.11
2022-09-05T09:09:23.534Z,58.11
2022-09-05T09:10:28.553Z,58.44
2022-09-05T09:11:23.541Z,58.34
2022-09-05T09:12:23.501Z,58.04
2022-09-05T09:13:23.537Z,58.54
2022-09-05T09:14:30.888Z,58.74
2022-09-05T09:15:24.469Z,58.34
2022-09-05T09:16:23.529Z,58.04
2022-09-05T09:17:23.447Z,58.11
2022-09-05T09:18:23.437Z,58.48
2022-09-05T09:19:29.261Z,58.75
2022-09-05T09:20:24.437Z,58.56
2022-09-05T09:21:28.426Z,59.15
2022-09-05T09:22:23.391Z,58.83
2022-09-05T09:23:32.402Z,58.40
2022-09-05T09:24:24.367Z,57.87
2022-09-05T09:25:26.412Z,57.48
2022-09-05T09:26:24.585Z,57.06
2022-09-05T09:27:27.276Z,57.25
2022-09-05T09:28:50.297Z,56.88
2022-09-05T09:29:24.315Z,57.18
2022-09-05T09:30:23.314Z,57.68
2022-09-05T09:31:23.361Z,57.60
2022-09-05T09:32:28.304Z,58.10
2022-09-05T09:33:27.191Z,58.40
2022-09-05T09:34:23.260Z,58.00
2022-09-05T09:35:23.270Z,58.40
2022-09-05T09:36:23.236Z,57.90
2022-09-05T09:37:27.598Z,57.28
2022-09-05T09:38:24.387Z,56.59
2022-09-05T09:39:38.802Z,56.59
2022-09-05T09:40:24.349Z,56.59
2022-09-05T09:41:23.199Z,55.59
2022-09-05T09:42:33.487Z,56.06
2022-09-05T09:43:29.189Z,55.89
2022-09-05T09:44:23.153Z,56.12
2022-09-05T09:45:28.627Z,55.72
2022-09-05T09:46:24.230Z,55.82
2022-09-05T09:47:23.118Z,56.41
2022-09-05T09:48:23.142Z,56.32
2022-09-05T09:49:23.772Z,56.32
2022-09-05T09:50:23.096Z,56.61
2022-09-05T09:51:23.086Z,57.04
2022-09-05T09:52:23.063Z,57.64
2022-09-05T09:53:23.055Z,57.90
2022-09-05T09:54:28.076Z,57.90
2022-09-05T09:55:23.036Z,57.70
2022-09-05T09:56:23.030Z,57.81
2022-09-05T09:57:23.011Z,57.51
2022-09-05T09:58:23.089Z,56.44
2022-09-05T09:59:22.991Z,56.74
2022-09-05T10:00:22.985Z,57.01
2022-09-05T10:01:36.209Z,56.32
2022-09-05T10:05:41.485Z,55.82
2022-09-05T10:08:21.327Z,56.34
2022-09-05T10:08:51.101Z,56.02
2022-09-05T10:10:35.506Z,56.41
2022-09-05T10:10:44.179Z,55.72
2022-09-05T10:10:48.645Z,55.59
2022-09-05T10:10:52.852Z,55.10
2022-09-05T10:10:53.206Z,56.02
2022-09-05T10:11:08.801Z,54.70
2022-09-05T10:11:52.063Z,55.40
2022-09-05T10:12:23.936Z,55.40
2022-09-05T10:13:23.174Z,56.38
2022-09-05T10:14:45.140Z,55.00
2022-09-05T10:15:31.467Z,56.09
2022-09-05T10:16:28.894Z,55.91
2022-09-05T10:17:22.794Z,56.41
2022-09-05T10:18:24.135Z,56.41
2022-09-05T10:20:08.002Z,56.12
2022-09-05T10:20:28.707Z,55.29
2022-09-05T10:21:23.770Z,55.19
2022-09-05T10:22:38.262Z,55.40
2022-09-05T10:23:23.787Z,55.00
2022-09-05T10:24:22.717Z,55.10
2022-09-05T10:25:22.710Z,55.07
2022-09-05T10:26:22.707Z,54.30
2022-09-05T10:27:27.738Z,55.00
2022-09-05T10:28:22.674Z,54.77
2022-09-05T10:29:36.831Z,54.87
2022-09-05T10:30:41.852Z,54.30
2022-09-05T10:33:13.998Z,54.21
2022-09-05T10:35:05.941Z,55.59
2022-09-05T10:35:17.611Z,55.59
2022-09-05T10:35:17.844Z,55.40
2022-09-05T10:35:24.311Z,55.49
2022-09-05T10:36:22.643Z,55.07
2022-09-05T10:37:22.578Z,55.17
2022-09-05T10:38:27.587Z,55.04
2022-09-05T10:39:22.650Z,55.34
2022-09-05T10:40:22.546Z,55.44
2022-09-05T10:41:23.137Z,55.47
2022-09-05T10:42:22.522Z,56.46
2022-09-05T10:43:22.517Z,55.76
2022-09-05T10:44:22.506Z,55.54
2022-09-05T10:45:37.935Z,54.94
2022-09-05T10:46:47.027Z,55.02
2022-09-05T10:47:23.549Z,55.64
2022-09-05T10:48:22.461Z,55.41
2022-09-05T10:49:30.376Z,55.09
2022-09-05T10:50:22.436Z,54.60
2022-09-05T10:51:27.064Z,54.79
2022-09-05T10:52:23.413Z,54.39
2022-09-05T10:53:22.469Z,55.51
2022-09-05T10:54:22.392Z,54.92
2022-09-05T10:55:22.386Z,54.99
2022-09-05T10:56:22.383Z,54.10
2022-09-05T10:57:22.361Z,54.30
2022-09-05T10:58:46.271Z,54.17
2022-09-05T11:02:16.594Z,53.50
2022-09-05T11:02:21.648Z,53.20
2022-09-05T11:02:28.496Z,51.62
2022-09-05T11:02:34.841Z,52.81
2022-09-05T11:03:23.479Z,52.51
2022-09-05T11:04:22.376Z,53.31
2022-09-05T11:05:22.314Z,52.31
2022-09-05T11:06:24.589Z,52.71
2022-09-05T11:07:27.899Z,53.38
2022-09-05T11:08:23.237Z,53.58
2022-09-05T11:09:22.230Z,52.29
2022-09-05T11:10:22.219Z,52.39
2022-09-05T11:11:34.085Z,52.88
2022-09-05T11:12:23.196Z,51.79
2022-09-05T11:13:22.257Z,52.49
2022-09-05T11:14:27.122Z,52.19
2022-09-05T11:15:23.164Z,51.79
2022-09-05T11:16:22.207Z,51.50
2022-09-05T11:17:22.154Z,52.17
2022-09-05T11:18:22.135Z,51.87
2022-09-05T11:19:23.119Z,51.70
2022-09-05T11:20:34.451Z,51.67
2022-09-05T11:21:23.100Z,51.45
2022-09-05T11:22:27.124Z,51.05
2022-09-05T11:23:22.144Z,50.56
2022-09-05T11:24:26.681Z,50.46
2022-09-05T11:25:36.304Z,50.46
2022-09-05T11:26:23.041Z,51.07
2022-09-05T11:27:24.316Z,50.88
2022-09-05T11:28:22.019Z,50.46
2022-09-05T11:29:22.012Z,50.56
2022-09-05T11:30:30.424Z,51.54
2022-09-05T11:31:23.084Z,49.87
2022-09-05T11:39:23.976Z,49.64
2022-09-05T11:39:52.066Z,48.63
2022-09-05T11:39:54.160Z,48.16
2022-09-05T11:39:55.339Z,47.72
2022-09-05T11:39:57.847Z,49.35
2022-09-05T11:40:03.624Z,47.91
2022-09-05T11:40:08.285Z,48.24
2022-09-05T11:40:10.854Z,48.14
2022-09-05T11:40:35.202Z,47.69
2022-09-05T11:41:23.785Z,47.00
2022-09-05T11:42:21.880Z,47.62
2022-09-05T11:43:21.859Z,47.60
2022-09-05T11:44:27.477Z,47.30
2022-09-05T11:45:21.837Z,46.31
2022-09-05T11:46:21.901Z,46.48
2022-09-05T11:47:29.729Z,46.00
2022-09-05T11:48:22.803Z,45.70
2022-09-05T11:49:21.793Z,45.70
2022-09-05T11:50:21.780Z,45.50
2022-09-05T11:51:26.041Z,46.11
2022-09-05T11:52:22.771Z,46.41
2022-09-05T11:53:21.751Z,46.53
2022-09-05T11:54:21.737Z,46.31
2022-09-05T11:55:26.752Z,46.44
2022-09-05T11:56:25.452Z,46.93
2022-09-05T11:57:33.449Z,46.33
2022-09-05T11:58:45.228Z,47.15
2022-09-05T11:59:33.652Z,47.22
2022-09-05T12:00:31.383Z,47.22
2022-09-05T12:01:42.067Z,47.32
2022-09-05T12:02:23.245Z,47.72
2022-09-05T12:03:58.194Z,46.14
2022-09-05T12:04:22.629Z,46.41
2022-09-05T12:05:50.306Z,46.41
2022-09-05T12:06:27.690Z,46.98
2022-09-05T12:07:30.403Z,46.47
2022-09-05T12:08:22.601Z,46.37
2022-09-05T12:09:23.826Z,46.04
2022-09-05T12:10:46.967Z,44.92
2022-09-05T12:11:22.561Z,44.62
2022-09-05T12:12:38.939Z,44.62
2022-09-05T12:13:26.398Z,44.82
2022-09-05T12:14:25.576Z,43.68
2022-09-05T12:15:21.539Z,42.35
2022-09-05T12:16:26.592Z,41.84
2022-09-05T12:17:34.975Z,40.21
2022-09-05T12:18:24.386Z,39.61
2022-09-05T12:19:22.927Z,40.56
2022-09-05T12:20:22.124Z,38.57
2022-09-05T12:21:21.452Z,38.73
2022-09-05T12:22:23.631Z,38.22
2022-09-05T12:23:51.445Z,37.40
2022-09-05T12:25:26.319Z,36.16
2022-09-05T12:25:26.619Z,36.78
2022-09-05T12:27:36.637Z,36.49
2022-09-05T12:27:40.162Z,35.96
2022-09-05T12:29:28.005Z,37.48
2022-09-05T12:29:32.904Z,37.37
2022-09-05T12:30:30.076Z,36.39
2022-09-05T12:32:50.281Z,35.55
2022-09-05T12:33:56.668Z,34.94
2022-09-05T12:36:02.626Z,34.35
2022-09-05T12:36:04.363Z,34.25
2022-09-05T12:36:12.598Z,33.96
2022-09-05T12:40:45.089Z,33.69
2022-09-05T12:40:46.172Z,34.16
2022-09-05T12:41:01.054Z,34.35
2022-09-05T12:41:14.918Z,33.07
2022-09-05T12:41:39.082Z,33.36
2022-09-05T12:41:45.083Z,33.96
2022-09-05T12:42:28.188Z,33.65
2022-09-05T12:44:39.009Z,33.26
2022-09-05T12:44:41.722Z,33.06
2022-09-05T12:45:24.828Z,31.66
2022-09-05T12:46:24.033Z,31.68
2022-09-05T12:47:21.316Z,31.15
2022-09-05T12:48:21.189Z,30.63
2022-09-05T12:49:21.163Z,30.74
2022-09-05T12:50:21.153Z,31.63
2022-09-05T12:51:46.795Z,31.65
2022-09-05T12:52:22.134Z,31.07
2022-09-05T12:53:21.137Z,31.76
2022-09-05T12:54:33.393Z,31.70
2022-09-05T12:55:22.108Z,31.79
2022-09-05T12:58:47.198Z,31.40
2022-09-05T13:02:09.302Z,31.98
2022-09-05T13:02:59.166Z,32.00
2022-09-05T13:03:04.681Z,33.51
2022-09-05T13:03:06.943Z,34.26
2022-09-05T13:03:09.169Z,36.69
2022-09-05T13:03:13.990Z,35.68
2022-09-05T13:03:27.858Z,37.02
2022-09-05T13:04:26.819Z,38.21
2022-09-05T13:05:27.161Z,38.92
2022-09-05T13:06:25.553Z,38.35
2022-09-05T13:07:21.981Z,40.13
2022-09-05T13:08:20.980Z,40.06
2022-09-05T13:09:20.961Z,39.88
2022-09-05T13:14:49.038Z,40.58
2022-09-05T13:14:49.744Z,40.78
2022-09-05T13:14:54.745Z,40.58
2022-09-05T13:14:58.996Z,41.49
2022-09-05T13:15:02.798Z,41.29
2022-09-05T13:15:23.921Z,41.49
2022-09-05T13:16:25.982Z,41.41
2022-09-05T13:17:20.907Z,41.31
2022-09-05T13:18:21.013Z,43.18
2022-09-05T13:19:20.857Z,41.83
2022-09-05T13:20:21.270Z,42.91
2022-09-05T13:21:22.997Z,42.41
2022-09-05T13:22:20.823Z,43.13
2022-09-05T13:23:20.960Z,42.83
2022-09-05T13:24:20.801Z,42.73
2022-09-05T13:25:20.802Z,43.03
2022-09-05T13:26:20.785Z,43.13
2022-09-05T13:27:20.773Z,42.83
2022-09-05T13:28:20.777Z,42.63
2022-09-05T13:29:25.770Z,42.65
2022-09-05T13:34:04.464Z,43.03
2022-09-05T13:35:31.652Z,42.76
2022-09-05T13:38:05.050Z,42.65
2022-09-05T13:38:05.341Z,41.47
2022-09-05T13:38:05.626Z,41.86
2022-09-05T13:38:13.186Z,42.16
2022-09-05T13:38:16.018Z,42.16
2022-09-05T13:38:17.353Z,42.76
2022-09-05T13:38:47.486Z,42.07
2022-09-05T13:39:21.847Z,42.36
2022-09-05T13:40:20.735Z,43.07
2022-09-05T13:41:26.950Z,42.55
2022-09-05T13:42:26.632Z,42.46
2022-09-05T13:43:20.631Z,41.30
2022-09-05T13:44:25.352Z,41.20
2022-09-05T13:45:21.575Z,40.80
2022-09-05T13:46:20.591Z,40.51
2022-09-05T13:47:30.271Z,40.01
2022-09-05T13:48:21.605Z,40.61
2022-09-05T13:49:26.877Z,40.70
2022-09-05T13:50:21.522Z,38.64
2022-09-05T13:51:20.515Z,38.43
2022-09-05T13:52:20.534Z,38.24
2022-09-05T13:53:20.511Z,38.73
2022-09-05T13:54:20.482Z,38.93
2022-09-05T13:55:25.520Z,38.34
2022-09-05T13:56:20.484Z,37.74
2022-09-05T13:57:32.540Z,37.95
2022-09-05T13:58:21.552Z,37.45
2022-09-05T13:59:20.425Z,37.95
2022-09-05T14:00:27.362Z,36.66
2022-09-05T14:01:21.470Z,36.46
2022-09-05T14:02:26.919Z,36.86
2022-09-05T14:03:30.791Z,37.45
2022-09-05T14:05:21.603Z,35.96
2022-09-05T14:06:45.270Z,36.36
2022-09-05T14:07:50.962Z,36.65
2022-09-05T14:08:26.371Z,35.68
2022-09-05T14:09:37.859Z,35.68
2022-09-05T14:10:21.326Z,35.07
2022-09-05T14:11:20.295Z,34.28
2022-09-05T14:12:20.287Z,34.28
2022-09-05T14:13:20.323Z,34.79
2022-09-05T14:15:08.374Z,35.28
2022-09-05T14:15:25.082Z,36.36
2022-09-05T14:16:20.278Z,36.36
2022-09-05T14:18:22.241Z,35.10
2022-09-05T14:19:25.232Z,36.68
2022-09-05T14:20:20.203Z,35.97
2022-09-05T14:21:20.189Z,35.08
2022-09-05T14:22:22.310Z,35.88
2022-09-05T14:23:20.198Z,35.77
2022-09-05T14:24:27.527Z,36.35
2022-09-05T14:25:21.144Z,36.55
2022-09-05T14:26:20.138Z,36.05
2022-09-05T14:27:32.303Z,35.66
2022-09-05T14:28:21.131Z,34.97
2022-09-05T14:29:20.101Z,34.99
2022-09-05T14:31:51.857Z,34.67
2022-09-05T14:35:27.736Z,33.22
2022-09-05T14:37:40.123Z,32.82
2022-09-05T14:37:40.361Z,32.82
2022-09-05T14:37:40.436Z,32.90
2022-09-05T14:37:53.651Z,34.59
2022-09-05T14:37:59.974Z,34.39
2022-09-05T14:38:01.184Z,33.91
2022-09-05T14:38:21.452Z,34.30
2022-09-05T14:39:20.091Z,33.80
2022-09-05T14:40:29.526Z,34.69
2022-09-05T14:41:25.994Z,34.10
2022-09-05T14:42:19.971Z,34.99
2022-09-05T14:43:27.042Z,35.97
2022-09-05T14:44:20.952Z,35.18
2022-09-05T14:45:19.932Z,35.28
2022-09-05T14:46:19.980Z,35.68
2022-09-05T14:47:32.336Z,34.79
2022-09-05T14:48:20.898Z,34.81
2022-09-05T14:49:19.899Z,34.61
2022-09-05T14:50:21.187Z,34.99
2022-09-05T14:51:25.435Z,35.50
2022-09-05T14:52:25.883Z,34.71
2022-09-05T14:55:21.260Z,35.88
2022-09-05T14:57:16.494Z,35.79
2022-09-05T15:02:41.567Z,35.28
2022-09-05T15:02:43.094Z,35.38
2022-09-05T15:02:43.340Z,36.46
2022-09-05T15:02:49.555Z,35.28
2022-09-05T15:02:52.077Z,35.77
2022-09-05T15:02:53.203Z,36.27
2022-09-05T15:03:26.489Z,36.86
2022-09-05T15:04:37.498Z,37.85
2022-09-05T15:05:20.711Z,37.65
2022-09-05T15:06:19.705Z,37.95
2022-09-05T15:07:19.690Z,37.95
2022-09-05T15:11:23.861Z,37.15
2022-09-05T15:12:17.315Z,36.68
2022-09-05T15:12:17.669Z,37.76
2022-09-05T15:12:18.559Z,36.86
2022-09-05T15:12:31.191Z,37.87
2022-09-05T15:13:20.626Z,36.98
2022-09-05T15:14:25.651Z,37.37
2022-09-05T15:15:19.605Z,37.17
2022-09-05T15:16:19.621Z,37.07
2022-09-05T15:17:19.587Z,36.98
2022-09-05T15:18:19.573Z,36.68
2022-09-05T15:19:19.561Z,37.17
2022-09-05T15:20:19.566Z,36.78
2022-09-05T15:21:33.217Z,38.16
2022-09-05T15:22:20.530Z,37.96
2022-09-05T15:23:19.517Z,38.26
2022-09-05T15:24:21.225Z,38.56
2022-09-05T15:25:24.529Z,38.95
2022-09-05T15:26:25.604Z,39.25
2022-09-05T15:27:20.478Z,38.65
2022-09-05T15:28:19.602Z,38.75
2022-09-05T15:29:19.452Z,38.56
2022-09-05T15:30:19.454Z,39.04
2022-09-05T15:31:19.593Z,38.35
2022-09-05T15:32:19.422Z,38.35
2022-09-05T15:33:19.410Z,39.34
2022-09-05T15:34:20.399Z,38.35
2022-09-05T15:35:19.401Z,38.75
2022-09-05T15:36:24.410Z,38.85
2022-09-05T15:37:22.015Z,38.75
2022-09-05T15:38:19.357Z,38.45
2022-09-05T15:39:19.344Z,38.26
2022-09-05T15:40:22.372Z,39.04
2022-09-05T15:41:19.322Z,39.34
2022-09-05T15:42:19.313Z,39.15
2022-09-05T15:43:19.300Z,39.34
2022-09-05T15:44:19.292Z,38.85
2022-09-05T15:45:19.291Z,38.95
2022-09-05T15:46:19.345Z,38.45
2022-09-05T15:47:24.281Z,38.65
2022-09-05T15:48:19.251Z,38.35
2022-09-05T15:49:19.251Z,38.56
2022-09-05T15:50:22.553Z,37.27
2022-09-05T15:51:19.249Z,37.96
2022-09-05T15:52:19.207Z,38.16
2022-09-05T15:53:19.194Z,37.66
2022-09-05T15:54:37.406Z,37.87
2022-09-05T15:55:20.182Z,37.27
2022-09-05T15:56:19.164Z,39.04
2022-09-05T15:57:19.150Z,37.96
2022-09-05T15:58:24.232Z,37.76
2022-09-05T15:59:19.129Z,37.87
2022-09-05T16:00:19.129Z,38.16
2022-09-05T16:01:30.559Z,38.35
2022-09-05T16:02:20.267Z,38.26
2022-09-05T16:04:53.286Z,38.45
2022-09-05T16:10:01.463Z,37.47
2022-09-05T16:10:27.712Z,37.87
2022-09-05T16:10:34.789Z,37.87
2022-09-05T16:10:36.985Z,38.56
2022-09-05T16:10:37.062Z,38.75
2022-09-05T16:10:38.139Z,38.95
2022-09-05T16:10:42.750Z,38.65
2022-09-05T16:11:54.076Z,37.57
2022-09-05T16:12:20.783Z,37.76
2022-09-05T16:13:18.980Z,37.47
2022-09-05T16:14:19.969Z,37.47
2022-09-05T16:17:02.482Z,37.66
2022-09-05T16:23:11.754Z,38.65
2022-09-05T16:23:18.845Z,37.66
2022-09-05T16:23:25.294Z,37.76
2022-09-05T16:23:25.484Z,38.06
2022-09-05T16:23:25.845Z,39.15
2022-09-05T16:23:29.701Z,37.59
2022-09-05T16:23:30.446Z,38.35
2022-09-05T16:23:40.754Z,38.28
2022-09-05T16:24:28.558Z,37.98
2022-09-05T16:25:19.886Z,37.59
2022-09-05T16:26:25.272Z,38.37
2022-09-05T16:27:19.825Z,37.59
2022-09-05T16:28:18.816Z,37.78
2022-09-05T16:29:23.911Z,37.88
2022-09-05T16:30:19.806Z,37.59
2022-09-05T16:31:23.881Z,37.60
2022-09-05T16:32:18.777Z,37.68
2022-09-05T16:33:18.760Z,37.90
2022-09-05T16:34:18.760Z,37.68
2022-09-05T16:35:18.775Z,37.80
2022-09-05T16:36:19.731Z,37.60
2022-09-05T16:37:18.716Z,37.51
2022-09-05T16:38:18.784Z,37.51
2022-09-05T16:39:19.696Z,37.80
2022-09-05T16:40:18.701Z,37.90
2022-09-05T16:41:23.582Z,37.51
2022-09-05T16:42:46.523Z,38.00
2022-09-05T16:43:19.656Z,37.80
2022-09-05T16:44:18.645Z,37.80
2022-09-05T16:45:18.643Z,37.60
2022-09-05T16:46:20.754Z,37.51
2022-09-05T16:47:18.609Z,38.59
2022-09-05T16:48:18.598Z,38.10
2022-09-05T16:49:18.586Z,37.80
2022-09-05T16:50:23.972Z,37.60
2022-09-05T16:51:34.650Z,36.52
2022-09-05T16:52:19.555Z,37.51
2022-09-05T16:53:30.844Z,37.70
2022-09-05T16:54:19.538Z,38.10
2022-09-05T16:55:21.482Z,36.71
2022-09-05T16:56:19.522Z,36.52